ETOU/WIE METAR and TAF weather

Enter ICAO airport designator
Station Type Date Time Source
ETOU METAR 2019/08/19 21:56 UTC NOAA

ETOU 192156Z AUTO 00000KT 9999 SCT085 16/10 A3013 RMK AO2 SLP202 T01580099 $


Station Type Date Time Source
ETOU Decoded METAR 2019/08/19 21:56 UTC NOAA

Wiesbaden, Germany (ETOU) 50-03N 008-20E
Aug 19, 2019 - 05:56 PM EDT / 2019.08.19 2156 UTC
Wind: Calm:0
Visibility: greater than 7 mile(s):0
Sky conditions: partly cloudy
Temperature: 60.4 F (15.8 C)
Dew Point: 49.8 F (9.9 C)
Relative Humidity: 67%
Pressure (altimeter): 30.13 in. Hg (1020 hPa)
ob: ETOU 192156Z AUTO 00000KT 9999 SCT085 16/10 A3013 RMK AO2 SLP202 T01580099
cycle: 22

Station Type Date Time Source
ETOU TAF 2019/08/19 19:27 UTC NOAA

TAF TAF ETOU 191921Z 1919/2101 VRB06KT 9999 SCT050 QNH3004INS TX25/2014Z TN11/2004Z

Example: see airport list